Hauptseite
METAR-TAF:

METAR-TAF

Flughäfen :

RAF Spadeadam

Spadeadam, England

Breite: 55-03N, Länge: 002-33W, Höhe: 325 m

Beobachtung

Neuester Wetterbericht von vor 49 Minuten, um 17:20 UTC
Wind 11 kt aus West/Südwest
Temperatur 14°C
Luftfeuchtigkeit 94%
Luftdruck 1004 hPa
Sichtweite 10 km oder mehr

METAR: EGOM 251720Z AUTO 24011KT 9999 OVC009/// 14/13 Q1004

Zeit: 19:09 (18:09 UTC)


TAF: fehlend

Wetterbeobachtungen und Prognosen von mehr als 4000 Flughäfen (METAR und TAF Bericht).

Die verfügbaren Stationen werden durch gelbe und rote Markierungen auf der Karte dargestellt.

Führen Sie die Maus auf sie, um den Namen der Station zu sehen.

Darauf klicken, um die Beobachtung von Wetterbeobachtungen und Prognosen zu sehen.

Um die Karte zu ändern : klicken Sie auf den grünen Tasten mit einem schwarzen Kreuz Zum Vergrößern, auf den grünen Button mit einem Gedankenstrich zu verkleinern, oder auf die grünen Pfeile für benachbarte Karten.


METAR-TAF: